Data for 01/12/2006

Time Sea-Level Adjusted Pressure Absolute Pressure Temperature Relative Humidity Dew Point   
(mb) (inHg) (mb) (inHg) (C) (F) (%) (C) (F)
00:05 1010 29.83 839 24.78 -1.1 29.9 55 -9.1 15.6
00:10 1010 29.83 839 24.78 -1 30.2 54 -9.2 15.5
00:15 1010 29.83 839 24.78 -0.8 30.6 53 -9.2 15.4
00:20 1010 29.83 839 24.78 -0.7 30.8 53 -9.1 15.6
00:25 1010 29.83 839 24.78 -0.6 30.9 53 -9.1 15.6
00:30 1010 29.83 839 24.78 -0.6 30.9 52 -9.2 15.4
00:35 1010 29.83 840 24.81 -0.5 31 52 -9.3 15.3
00:40 1010 29.83 840 24.81 -0.5 31 52 -9.1 15.6
00:45 1010 29.83 840 24.81 -0.6 30.9 52 -9.3 15.3
00:50 1010 29.83 840 24.81 -0.5 31 51 -9.4 15
00:55 1010 29.83 840 24.81 -0.5 31.1 51 -9.5 15
01:00 1011 29.85 840 24.81 -0.6 31 52 -9.3 15.3
01:05 1011 29.85 840 24.81 -0.7 30.8 53 -9 15.9
01:10 1011 29.85 840 24.81 -0.6 31 55 -8.5 16.6
01:15 1011 29.85 840 24.81 -0.8 30.5 56 -8.5 16.7
01:20 1011 29.85 840 24.81 -1 30.2 55 -9 15.9
01:25 1011 29.85 840 24.81 -1 30.2 54 -9.1 15.7
01:30 1011 29.85 840 24.81 -1.1 30 56 -8.8 16.2
01:35 1011 29.85 840 24.81 -1.3 29.7 57 -8.7 16.4
01:40 1011 29.85 840 24.81 -1.4 29.5 57 -8.9 16
01:45 1011 29.85 840 24.81 -1.4 29.4 57 -8.9 16
01:50 1011 29.85 840 24.81 -1.5 29.3 57 -9 15.7
01:55 1011 29.85 840 24.81 -1.5 29.2 57 -9 15.7
02:00 1011 29.85 840 24.81 -1.5 29.4 54 -9.5 14.8
02:05 1011 29.85 840 24.81 -1.4 29.4 54 -9.7 14.6
02:10 1011 29.85 840 24.81 -1.5 29.3 54 -9.6 14.7
02:15 1011 29.85 840 24.81 -1.5 29.2 54 -9.7 14.5
02:20 1011 29.85 840 24.81 -1.5 29.2 53 -9.8 14.3
02:25 1011 29.85 840 24.81 -1.5 29.4 52 -10.1 13.8
02:30 1011 29.85 840 24.81 -1.3 29.7 51 -10.2 13.7
02:35 1011 29.85 841 24.83 -1.2 29.8 51 -10.2 13.7
02:40 1011 29.85 841 24.83 -1.3 29.6 52 -9.9 14.2
02:45 1011 29.85 841 24.83 -1.5 29.3 53 -9.8 14.4
02:50 1012 29.88 841 24.83 -1.7 29 53 -10 14.1
02:55 1012 29.88 841 24.83 -1.7 29 53 -10.1 13.8
03:00 1012 29.88 841 24.83 -1.6 29.1 53 -10 13.9
03:05 1012 29.88 841 24.83 -1.6 29.2 53 -10 14.1
03:10 1012 29.88 841 24.83 -1.5 29.3 52 -10.2 13.7
03:15 1012 29.88 841 24.83 -1.4 29.4 53 -9.9 14.2
03:20 1012 29.88 841 24.83 -1.4 29.4 53 -9.8 14.4
03:25 1012 29.88 841 24.83 -1.5 29.2 53 -9.8 14.3
03:30 1012 29.88 841 24.83 -1.5 29.3 52 -10.2 13.6
03:35 1012 29.88 841 24.83 -1.3 29.6 54 -9.6 14.8
03:40 1012 29.88 841 24.83 -1.5 29.3 54 -9.7 14.6
03:45 1012 29.88 841 24.83 -1.6 29.1 54 -9.7 14.6
03:50 1012 29.88 841 24.83 -1.7 29 54 -9.8 14.4
03:55 1012 29.88 842 24.86 -1.7 29 55 -9.6 14.6
04:00 1012 29.88 842 24.86 -1.8 28.8 55 -9.6 14.7
04:05 1012 29.88 842 24.86 -1.9 28.5 56 -9.6 14.7
04:10 1012 29.88 842 24.86 -2.2 28.1 57 -9.7 14.6
04:15 1013 29.91 842 24.86 -2.2 28.1 56 -9.9 14.2
04:20 1013 29.91 842 24.86 -2.3 27.9 57 -9.7 14.5
04:25 1013 29.91 842 24.86 -2.5 27.6 59 -9.5 14.9
04:30 1013 29.91 842 24.86 -2.7 27.2 59 -9.6 14.8
04:35 1013 29.91 842 24.86 -2.4 27.6 58 -9.6 14.7
04:40 1013 29.91 842 24.86 -2.1 28.2 56 -9.7 14.6
04:45 1013 29.91 842 24.86 -1.9 28.6 56 -9.6 14.6
04:50 1013 29.91 842 24.86 -1.7 28.9 54 -9.8 14.4
04:55 1013 29.91 842 24.86 -1.6 29.1 54 -9.7 14.5
05:00 1013 29.91 842 24.86 -1.7 28.9 57 -9.2 15.5
05:05 1013 29.91 842 24.86 -1.9 28.5 57 -9.4 15.1
05:10 1013 29.91 842 24.86 -1.9 28.5 57 -9.3 15.2
05:15 1013 29.91 842 24.86 -1.8 28.8 56 -9.4 15.2
05:20 1013 29.91 842 24.86 -1.6 29.2 56 -9.3 15.2
05:25 1013 29.91 842 24.86 -1.4 29.5 54 -9.5 14.9
05:30 1013 29.91 842 24.86 -1.3 29.6 54 -9.5 14.8
05:35 1013 29.91 842 24.86 -1.4 29.5 56 -9.2 15.5
05:40 1013 29.91 842 24.86 -1.5 29.3 56 -9.3 15.3
05:45 1013 29.91 843 24.89 -1.6 29.1 57 -9.1 15.6
05:50 1013 29.91 843 24.89 -1.6 29.1 56 -9.3 15.3
05:55 1013 29.91 843 24.89 -1.6 29.1 57 -9 15.8
06:00 1013 29.91 843 24.89 -1.7 29 57 -9 15.7
06:05 1014 29.94 843 24.89 -1.6 29.1 56 -9.3 15.2
06:10 1014 29.94 843 24.89 -1.4 29.4 55 -9.3 15.3
06:15 1014 29.94 843 24.89 -1.3 29.6 54 -9.5 15
06:20 1014 29.94 843 24.89 -1.2 29.8 54 -9.5 15
06:25 1014 29.94 843 24.89 -1.1 29.9 53 -9.6 14.7
06:30 1014 29.94 843 24.89 -1.1 30 54 -9.3 15.2
06:35 1014 29.94 843 24.89 -1.1 30.1 52 -9.6 14.7
06:40 1014 29.94 843 24.89 -1 30.1 52 -9.7 14.6
06:45 1014 29.94 843 24.89 -1.1 30.1 51 -9.8 14.3
06:50 1014 29.94 843 24.89 -1.1 30 53 -9.6 14.7
06:55 1014 29.94 843 24.89 -1.1 30 53 -9.4 15
07:00 1014 29.94 844 24.92 -1.1 30 53 -9.6 14.7
07:05 1014 29.94 844 24.92 -1 30.1 52 -9.7 14.6
07:10 1014 29.94 844 24.92 -1.1 30.1 52 -9.7 14.6
07:15 1014 29.94 844 24.92 -1.1 30.1 53 -9.6 14.7
07:20 1014 29.94 844 24.92 -1.1 30 51 -10 13.9
07:25 1014 29.94 844 24.92 -1.1 29.9 52 -9.8 14.4
07:30 1014 29.94 844 24.92 -1.2 29.8 52 -9.9 14.3
07:35 1014 29.94 844 24.92 -1.3 29.7 51 -10.2 13.7
07:40 1015 29.97 844 24.92 -1.2 29.8 52 -9.9 14.2
07:45 1015 29.97 844 24.92 -1.2 29.9 52 -9.9 14.2
07:50 1015 29.97 844 24.92 -1.3 29.8 53 -9.7 14.5
07:55 1015 29.97 844 24.92 -1.4 29.5 52 -9.9 14.2
08:00 1015 29.97 844 24.92 -1.4 29.5 53 -9.9 14.2
08:05 1015 29.97 844 24.92 -1.3 29.6 52 -10 14.1
08:10 1015 29.97 844 24.92 -1.3 29.7 51 -10.1 13.7
08:15 1015 29.97 844 24.92 -1.4 29.5 51 -10.2 13.6
08:20 1015 29.97 844 24.92 -1.4 29.5 51 -10.3 13.4
08:25 1015 29.97 844 24.92 -1.3 29.6 52 -10 13.9
08:30 1015 29.97 844 24.92 -1.5 29.3 52 -10.2 13.7
08:35 1015 29.97 845 24.95 -1.5 29.3 51 -10.3 13.4
08:40 1015 29.97 845 24.95 -1.5 29.3 51 -10.4 13.3
08:45 1016 30 845 24.95 -1.5 29.4 51 -10.4 13.3
08:50 1016 30 845 24.95 -1.3 29.6 50 -10.4 13.2
08:55 1016 30 845 24.95 -1.1 30 49 -10.5 13.1
09:00 1016 30 845 24.95 -1 30.2 49 -10.5 13.2
09:05 1016 30 845 24.95 -0.9 30.4 51 -9.9 14.2
09:10 1016 30 845 24.95 -0.9 30.3 52 -9.7 14.5
09:15 1016 30 845 24.95 -1.1 29.9 49 -10.4 13.2
09:20 1016 30 845 24.95 -1.3 29.7 51 -10.2 13.7
09:25 1016 30 845 24.95 -1.4 29.6 52 -10.1 13.9
09:30 1016 30 845 24.95 -1.2 29.8 50 -10.3 13.5
09:35 1016 30 845 24.95 -1 30.3 49 -10.4 13.2
09:40 1016 30 845 24.95 0.1 32.1 45 -10.4 13.3
09:45 1016 30 845 24.95 0.4 32.7 44 -10.5 13.1
09:50 1016 30 846 24.98 0.6 33.1 43 -10.6 12.9
09:55 1016 30 846 24.98 0.8 33.5 42 -10.6 12.9
10:00 1017 30.03 846 24.98 0.7 33.2 43 -10.4 13.3
10:05 1017 30.03 846 24.98 0.4 32.7 45 -10.1 13.8
10:10 1017 30.03 846 24.98 0.2 32.3 45 -10.5 13.1
10:15 1017 30.03 846 24.98 -0.1 31.8 46 -10.3 13.5
10:20 1017 30.03 846 24.98 -0.2 31.7 47 -10.3 13.5
10:25 1017 30.03 846 24.98 0.3 32.5 43 -10.8 12.6
10:30 1017 30.03 846 24.98 0.8 33.4 43 -10.5 13
10:35 1017 30.03 846 24.98 0.4 32.8 45 -10.2 13.6
10:40 1017 30.03 846 24.98 0.5 32.9 45 -10.1 13.8
10:45 1017 30.03 846 24.98 0.6 33.1 44 -10.3 13.4
10:50 1017 30.03 846 24.98 0.9 33.6 43 -10.3 13.5
10:55 1017 30.03 846 24.98 1.1 34 40 -11.1 12.1
11:00 1017 30.03 846 24.98 1.2 34.1 41 -10.6 12.9
11:05 1017 30.03 846 24.98 1 33.9 41 -10.7 12.7
11:10 1017 30.03 846 24.98 1 33.9 42 -10.6 13
11:15 1017 30.03 846 24.98 1.1 34 42 -10.3 13.4
11:20 1017 30.03 846 24.98 1.4 34.4 41 -10.4 13.2
11:25 1017 30.03 846 24.98 1.5 34.7 40 -10.6 12.9
11:30 1017 30.03 846 24.98 1.6 34.9 40 -10.8 12.6
11:35 1017 30.03 846 24.98 2.2 36 39 -10.5 13.2
11:40 1017 30.03 846 24.98 2.5 36.4 40 -9.8 14.3
11:45 1017 30.03 846 24.98 2.5 36.6 39 -10.2 13.6
11:50 1017 30.03 846 24.98 2.6 36.6 41 -9.5 15
11:55 1017 30.03 846 24.98 2.2 36 40 -10.1 13.9
12:00 1017 30.03 846 24.98 2.5 36.4 40 -9.9 14.2
12:05 1017 30.03 846 24.98 2.4 36.4 41 -9.5 14.9
12:10 1017 30.03 846 24.98 1.8 35.2 42 -9.8 14.3
12:15 1017 30.03 846 24.98 1.2 34.1 42 -10.4 13.2
12:20 1017 30.03 846 24.98 1 33.8 43 -10.1 13.8
12:25 1017 30.03 846 24.98 1 33.7 44 -10 14.1
12:30 1017 30.03 846 24.98 1 33.7 42 -10.4 13.2
12:35 1017 30.03 846 24.98 1.5 34.6 40 -10.8 12.6
12:40 1017 30.03 846 24.98 1.6 34.8 40 -10.8 12.6
12:45 1017 30.03 846 24.98 1.3 34.3 43 -9.9 14.1
12:50 1017 30.03 846 24.98 1.6 34.8 41 -10.2 13.6
12:55 1017 30.03 846 24.98 1.5 34.6 39 -11 12.2
13:00 1017 30.03 846 24.98 1.3 34.4 42 -10.1 13.8
13:05 1017 30.03 846 24.98 1.3 34.4 38 -11.4 11.4
13:10 1017 30.03 846 24.98 1.7 35 39 -10.7 12.7
13:15 1017 30.03 846 24.98 1.4 34.5 43 -9.7 14.5
13:20 1017 30.03 846 24.98 1.4 34.6 42 -10.1 13.9
13:25 1017 30.03 846 24.98 1.6 35 41 -10.1 13.8
13:30 1017 30.03 846 24.98 2.1 35.8 40 -10.2 13.6
13:35 1017 30.03 846 24.98 1.8 35.3 41 -10.1 13.9
13:40 1017 30.03 846 24.98 2.2 35.9 38 -10.7 12.8
13:45 1017 30.03 846 24.98 2.6 36.6 39 -10 13.9
13:50 1017 30.03 846 24.98 2.1 35.9 40 -10.1 13.9
13:55 1017 30.03 846 24.98 1.9 35.5 38 -11 12.1
14:00 1017 30.03 846 24.98 2.3 36.1 37 -11 12.3
14:05 1017 30.03 846 24.98 2.5 36.5 39 -10.1 13.8
14:10 1017 30.03 846 24.98 2.5 36.5 38 -10.5 13
14:15 1017 30.03 846 24.98 2 35.6 41 -10 14
14:20 1017 30.03 846 24.98 2.5 36.5 39 -10.1 13.8
14:25 1017 30.03 846 24.98 2.5 36.5 38 -10.6 13
14:30 1017 30.03 846 24.98 2.5 36.5 37 -10.7 12.8
14:35 1017 30.03 846 24.98 2.7 36.9 36 -11 12.1
14:40 1017 30.03 846 24.98 2.4 36.4 40 -10 14
14:45 1017 30.03 846 24.98 2.2 36 41 -9.9 14.2
14:50 1017 30.03 846 24.98 1.7 35.1 41 -10.1 13.7
14:55 1017 30.03 846 24.98 1.6 34.8 41 -10.4 13.2
15:00 1017 30.03 846 24.98 1.3 34.4 41 -10.5 13.1
15:05 1017 30.03 847 25.01 1.3 34.4 41 -10.6 12.8
15:10 1017 30.03 847 25.01 1.4 34.6 42 -10.3 13.5
15:15 1017 30.03 847 25.01 1.9 35.5 39 -10.5 13
15:20 1017 30.03 847 25.01 2.1 35.9 38 -10.6 12.9
15:25 1018 30.06 847 25.01 2.3 36.1 37 -11.1 12
15:30 1018 30.06 847 25.01 2.1 35.8 37 -11.1 12.1
15:35 1018 30.06 847 25.01 2 35.6 38 -10.8 12.6
15:40 1017 30.03 847 25.01 2.1 35.8 35 -11.9 10.6
15:45 1017 30.03 847 25.01 2.3 36.1 36 -11.2 11.8
15:50 1018 30.06 847 25.01 2 35.6 37 -11.1 12
15:55 1018 30.06 847 25.01 2 35.5 38 -11.1 12
16:00 1018 30.06 847 25.01 1.8 35.2 39 -10.7 12.8
16:05 1018 30.06 847 25.01 1.9 35.5 39 -10.5 13.2
16:10 1018 30.06 847 25.01 1.8 35.2 38 -11 12.2
16:15 1018 30.06 847 25.01 1.9 35.5 39 -10.7 12.7
16:20 1018 30.06 847 25.01 1.7 35 40 -10.4 13.2
16:25 1018 30.06 847 25.01 1.4 34.5 41 -10.4 13.2
16:30 1018 30.06 847 25.01 1.2 34.1 41 -10.5 13
16:35 1018 30.06 847 25.01 0.4 32.7 44 -10.3 13.4
16:40 1018 30.06 847 25.01 0.1 32.1 45 -10.4 13.2
16:45 1018 30.06 847 25.01 -0.3 31.5 45 -10.9 12.5
16:50 1018 30.06 847 25.01 -0.5 31.2 46 -10.8 12.5
16:55 1018 30.06 847 25.01 -0.6 30.9 47 -10.7 12.7
17:00 1018 30.06 847 25.01 -1 30.3 47 -10.9 12.3
17:05 1018 30.06 847 25.01 -1.1 30 46 -11.4 11.5
17:10 1018 30.06 847 25.01 -1.1 30.1 45 -11.5 11.4
17:15 1018 30.06 847 25.01 -0.8 30.5 44 -11.5 11.3
17:20 1018 30.06 847 25.01 -0.8 30.5 44 -11.7 10.9
17:25 1018 30.06 847 25.01 -0.7 30.8 44 -11.5 11.4
17:30 1018 30.06 847 25.01 -0.8 30.5 45 -11.4 11.5
17:35 1018 30.06 847 25.01 -1.2 29.9 46 -11.4 11.5
17:40 1018 30.06 847 25.01 -1.1 30 45 -11.5 11.3
17:45 1018 30.06 847 25.01 -1.8 28.8 48 -11.3 11.7
17:50 1018 30.06 848 25.04 -2.2 28.1 49 -11.5 11.2
17:55 1018 30.06 847 25.01 -2.6 27.3 49 -12 10.5
18:00 1018 30.06 847 25.01 -2.7 27.1 49 -12 10.4
18:05 1018 30.06 847 25.01 -2.4 27.6 47 -12.2 10.1
18:10 1018 30.06 847 25.01 -2 28.4 46 -12.1 10.2
18:15 1018 30.06 847 25.01 -1.9 28.6 46 -12 10.3
18:20 1018 30.06 847 25.01 -2 28.3 48 -11.6 11.2
18:25 1018 30.06 847 25.01 -2.4 27.6 46 -12.6 9.4
18:30 1018 30.06 847 25.01 -2.9 26.8 47 -12.8 9
18:35 1018 30.06 847 25.01 -2.6 27.3 45 -12.9 8.7
18:40 1018 30.06 847 25.01 -2.1 28.2 44 -12.7 9.2
18:45 1018 30.06 847 25.01 -1.8 28.8 42 -13 8.6
18:50 1018 30.06 847 25.01 -1.7 28.9 42 -13 8.6
18:55 1018 30.06 847 25.01 -1.7 28.9 44 -12.6 9.4
19:00 1018 30.06 847 25.01 -2 28.4 42 -13.2 8.3
19:05 1018 30.06 847 25.01 -2.3 27.8 44 -12.9 8.7
19:10 1018 30.06 847 25.01 -2.3 27.8 44 -12.9 8.7
19:15 1018 30.06 847 25.01 -2.6 27.4 46 -12.7 9.1
19:20 1018 30.06 847 25.01 -3.1 26.5 50 -12.1 10.3
19:25 1018 30.06 847 25.01 -3.7 25.4 50 -12.6 9.2
19:30 1018 30.06 847 25.01 -3.6 25.5 49 -13 8.7
19:35 1018 30.06 847 25.01 -3.6 25.5 49 -12.8 8.9
19:40 1018 30.06 847 25.01 -3.8 25.2 49 -13 8.6
19:45 1018 30.06 847 25.01 -3.6 25.6 50 -12.5 9.5
19:50 1018 30.06 847 25.01 -3.5 25.7 51 -12.1 10.2
19:55 1018 30.06 847 25.01 -3.2 26.3 49 -12.3 9.8
20:00 1018 30.06 847 25.01 -4 24.8 52 -12.5 9.5
20:05 1018 30.06 848 25.04 -4.5 23.8 54 -12.4 9.7
20:10 1018 30.06 848 25.04 -4.7 23.5 54 -12.6 9.3
20:15 1019 30.09 848 25.04 -4.5 23.8 54 -12.6 9.4
20:20 1018 30.06 848 25.04 -4.2 24.4 53 -12.4 9.7
20:25 1018 30.06 848 25.04 -4.2 24.4 54 -12.2 10
20:30 1018 30.06 848 25.04 -4.3 24.3 53 -12.5 9.4
20:35 1018 30.06 848 25.04 -4.1 24.7 52 -12.4 9.6
20:40 1018 30.06 847 25.01 -4.1 24.6 53 -12.4 9.7
20:45 1018 30.06 847 25.01 -4.4 24 54 -12.4 9.7
20:50 1018 30.06 848 25.04 -4.6 23.7 55 -12.3 9.8
20:55 1018 30.06 847 25.01 -4.4 24 53 -12.6 9.3
21:00 1018 30.06 847 25.01 -4.2 24.4 52 -12.7 9.2
21:05 1018 30.06 847 25.01 -4.5 23.8 54 -12.5 9.4
21:10 1018 30.06 847 25.01 -4.5 23.9 53 -12.7 9.1
21:15 1018 30.06 847 25.01 -4.4 24.2 53 -12.5 9.4
21:20 1018 30.06 847 25.01 -4.2 24.4 52 -12.7 9.2
21:25 1018 30.06 847 25.01 -4.3 24.2 52 -12.7 9.2
21:30 1018 30.06 847 25.01 -4.3 24.3 53 -12.5 9.5
21:35 1018 30.06 847 25.01 -4.5 23.9 54 -12.5 9.5
21:40 1018 30.06 847 25.01 -4.6 23.7 53 -12.8 8.9
21:45 1018 30.06 847 25.01 -4.4 24.1 51 -13.1 8.5
21:50 1018 30.06 847 25.01 -4.3 24.3 51 -12.9 8.9
21:55 1018 30.06 847 25.01 -4.3 24.2 52 -12.9 8.8
22:00 1018 30.06 847 25.01 -4.3 24.2 51 -13.1 8.5
22:05 1018 30.06 847 25.01 -4.4 24 51 -13.1 8.5
22:10 1018 30.06 847 25.01 -4.5 23.9 51 -13.2 8.3
22:15 1018 30.06 847 25.01 -4.4 24 51 -13.2 8.3
22:20 1018 30.06 847 25.01 -4.4 24.1 51 -13.2 8.3
22:25 1018 30.06 847 25.01 -4.3 24.2 50 -13.3 8.1
22:30 1018 30.06 847 25.01 -4.4 24.2 50 -13.2 8.2
22:35 1018 30.06 847 25.01 -4.4 24 51 -13.2 8.2
22:40 1018 30.06 847 25.01 -4.4 24.1 50 -13.4 7.9
22:45 1018 30.06 847 25.01 -4.4 24.1 51 -13.2 8.2
22:50 1018 30.06 847 25.01 -4.4 24 50 -13.4 7.9
22:55 1018 30.06 847 25.01 -4.5 23.8 50 -13.4 8
23:00 1018 30.06 847 25.01 -4.7 23.6 51 -13.3 8
23:05 1018 30.06 847 25.01 -4.7 23.6 51 -13.3 8
23:10 1018 30.06 847 25.01 -4.6 23.7 50 -13.4 7.8
23:15 1018 30.06 847 25.01 -4.6 23.8 50 -13.4 7.8
23:20 1018 30.06 847 25.01 -4.5 23.9 50 -13.5 7.7
23:25 1018 30.06 847 25.01 -4.5 23.9 50 -13.5 7.7
23:30 1018 30.06 847 25.01 -4.6 23.8 50 -13.5 7.6
23:35 1018 30.06 847 25.01 -4.5 23.8 50 -13.6 7.5
23:40 1018 30.06 847 25.01 -4.6 23.8 49 -13.7 7.3
23:45 1018 30.06 847 25.01 -4.5 23.9 49 -13.8 7.2
23:50 1018 30.06 847 25.01 -4.5 23.9 49 -13.6 7.4
23:55 1018 30.06 847 25.01 -4.5 23.9 49 -13.7 7.4
24:00 1018 30.06 847 25.01 -4.5 24 49 -13.7 7.3